Time;durP1;ratioP1;P1;durP2;ratioP2;P2;SDS_P1;SDS_P2;PMS_P1;PMS_P2;Temp;Humidity;BMP_temperature;BMP_pressure;BME280_temperature;BME280_humidity;BME280_pressure;Samples;Min_cycle;Max_cycle;Signal;HPM_P1;HPM_P2
2022/08/04 00:00:44;;;;;;;19.70;17.30;;;;;;;18.92;68.49;98837.48;433431;1268;108957;-40
2022/08/04 00:10:56;;;;;;;22.30;19.50;;;;;;;18.82;68.44;98840.39;433279;1270;99404;-41
2022/08/04 00:21:07;;;;;;;26.60;19.70;;;;;;;18.66;68.99;98841.73;433630;1267;107731;-40
2022/08/04 00:31:22;;;;;;;23.70;20.20;;;;;;;18.59;69.05;98845.17;433757;1268;98476;-40
2022/08/04 00:41:51;;;;;;;25.50;22.90;;;;;;;18.39;69.21;98849.60;433937;1268;112420;-40
2022/08/04 00:52:02;;;;;;;28.50;22.50;;;;;;;18.22;69.53;98849.90;433683;1267;108937;-40
2022/08/04 01:02:28;;;;;;;25.40;21.90;;;;;;;18.13;69.76;98842.69;433501;1267;98866;-40
2022/08/04 01:13:06;;;;;;;31.00;22.50;;;;;;;18.08;70.10;98844.42;434225;1258;108613;31
2022/08/04 01:34:00;;;;;;;24.00;21.50;;;;;;;17.98;70.59;98843.34;432745;1270;112516;-40
2022/08/04 01:44:13;;;;;;;29.90;22.70;;;;;;;17.91;70.69;98837.52;433116;1270;108747;-39
2022/08/04 01:54:19;;;;;;;24.00;21.50;;;;;;;17.84;71.03;98838.78;433051;1270;99281;-41
2022/08/04 02:04:27;;;;;;;25.40;21.80;;;;;;;17.90;71.25;98840.73;433105;1270;108901;-41
2022/08/04 02:14:56;;;;;;;22.30;20.00;;;;;;;17.84;71.12;98834.30;433025;1270;99276;-40
2022/08/04 02:25:03;;;;;;;22.20;19.90;;;;;;;17.73;71.13;98837.89;433379;1270;112610;-42
2022/08/04 02:35:08;;;;;;;26.60;20.80;;;;;;;17.64;71.46;98836.05;432947;1270;108801;-40
2022/08/04 02:45:18;;;;;;;27.20;22.30;;;;;;;17.56;71.85;98831.38;433490;1270;99341;-41
2022/08/04 02:55:27;;;;;;;28.70;20.60;;;;;;;17.50;71.97;98823.51;433176;1269;108878;-41
2022/08/04 03:05:38;;;;;;;24.10;20.30;;;;;;;17.34;71.93;98821.62;432992;1270;99903;-42
2022/08/04 03:16:36;;;;;;;21.40;19.10;;;;;;;17.31;72.35;98829.05;433169;1269;112467;-42
2022/08/04 03:27:19;;;;;;;24.60;21.50;;;;;;;17.47;72.50;98835.45;433395;1269;108845;-41
2022/08/04 03:47:52;;;;;;;25.10;22.40;;;;;;;17.58;72.72;98839.39;433448;1269;108363;-40
2022/08/04 03:58:17;;;;;;;22.30;20.00;;;;;;;17.65;72.66;98843.77;432769;1270;98842;-41
2022/08/04 04:08:53;;;;;;;19.80;16.90;;;;;;;18.54;72.52;98847.34;433689;1270;112083;-41
2022/08/04 04:30:08;;;;;;;18.60;16.40;;;;;;;22.59;69.21;98851.03;433174;1271;99158;-40
2022/08/04 04:40:17;;;;;;;18.60;16.00;;;;;;;23.72;67.54;98844.84;433518;1269;108816;-41
2022/08/04 04:50:25;;;;;;;15.10;13.50;;;;;;;24.83;66.37;98846.48;433325;1269;99241;-40
2022/08/04 05:00:39;;;;;;;22.20;14.00;;;;;;;25.58;65.17;98848.61;433416;1269;111909;-40
2022/08/04 05:34:11;;;;;;;17.90;13.40;;;;;;;27.36;59.33;98865.23;431484;1274;95421;-42
2022/08/04 05:44:22;;;;;;;20.40;13.80;;;;;;;27.47;58.91;98862.39;431571;1274;108272;-43
2022/08/04 05:54:30;;;;;;;17.40;14.30;;;;;;;27.52;57.88;98863.33;431320;1274;108910;-42
2022/08/04 06:04:41;;;;;;;21.00;15.50;;;;;;;27.51;56.96;98861.96;430660;1274;108648;-41
2022/08/04 06:14:53;;;;;;;18.60;12.80;;;;;;;27.79;56.62;98867.25;430734;1274;94542;-41
2022/08/04 06:25:09;;;;;;;18.80;10.40;;;;;;;28.42;55.60;98863.98;430834;1274;95446;-42
2022/08/04 06:35:18;;;;;;;21.10;9.60;;;;;;;28.33;54.17;98860.91;430797;1274;108350;-41
2022/08/04 06:45:26;;;;;;;19.30;9.80;;;;;;;28.72;53.71;98863.07;430780;1274;108171;-41
2022/08/04 06:55:33;;;;;;;15.10;10.20;;;;;;;28.91;52.29;98862.63;431237;1274;109228;-41
2022/08/04 07:05:42;;;;;;;12.10;8.90;;;;;;;29.18;51.14;98873.46;431367;1274;96358;-42
2022/08/04 07:15:50;;;;;;;11.50;8.20;;;;;;;29.14;50.43;98872.57;431128;1274;97264;-42
2022/08/04 07:25:59;;;;;;;12.00;7.70;;;;;;;28.86;48.62;98871.14;431235;1274;109828;-41
2022/08/04 07:36:18;;;;;;;11.80;6.90;;;;;;;29.16;49.61;98873.08;431476;1274;108952;-41
2022/08/04 07:46:32;;;;;;;6.40;5.20;;;;;;;29.40;49.02;98872.66;431732;1274;108635;-41
2022/08/04 07:56:43;;;;;;;5.70;4.10;;;;;;;29.76;48.34;98864.59;431637;1274;96158;-41
2022/08/04 08:06:51;;;;;;;6.90;4.30;;;;;;;29.92;47.11;98858.46;431036;1277;96189;-41
2022/08/04 08:17:01;;;;;;;4.40;3.30;;;;;;;30.11;44.84;98859.86;431602;1274;109885;-42
2022/08/04 08:27:08;;;;;;;5.20;3.60;;;;;;;29.49;42.55;98861.70;431532;1274;108848;-41
2022/08/04 08:37:19;;;;;;;4.50;3.30;;;;;;;28.98;41.97;98864.26;431362;1274;108811;-40
2022/08/04 08:47:35;;;;;;;7.00;3.30;;;;;;;29.39;42.16;98863.52;431248;1274;96207;-42
2022/08/04 08:58:01;;;;;;;;;;;;;;;29.42;40.79;98862.59;431327;1274;109822;-41
2022/08/04 09:08:15;;;;;;;4.30;3.50;;;;;;;29.40;40.62;98868.55;431451;1274;109685;-42
2022/08/04 09:18:27;;;;;;;3.90;3.60;;;;;;;29.41;40.60;98870.82;431170;1274;108974;-41
2022/08/04 09:28:35;;;;;;;4.00;3.60;;;;;;;29.47;39.99;98867.39;431052;1274;96240;-40
2022/08/04 09:39:02;;;;;;;4.80;4.00;;;;;;;29.42;39.30;98864.48;430910;1274;96809;-41
2022/08/04 09:59:22;;;;;;;3.60;3.40;;;;;;;29.20;39.06;98857.34;430676;1274;108790;-41
2022/08/04 10:09:34;;;;;;;4.80;4.40;;;;;;;29.29;39.43;98849.48;431543;1274;109507;-40
2022/08/04 10:19:43;;;;;;;6.00;3.70;;;;;;;29.42;39.30;98848.84;431463;1273;96159;-41
2022/08/04 10:29:50;;;;;;;4.40;4.10;;;;;;;29.22;38.71;98848.05;430849;1276;96171;-41
2022/08/04 11:00:40;;;;;;;6.80;4.30;;;;;;;29.84;39.08;98829.90;431616;1274;96346;-40
2022/08/04 11:10:48;;;;;;;10.20;4.30;;;;;;;29.70;39.14;98828.55;431015;1274;96393;-40
2022/08/04 11:31:03;;;;;;;5.10;4.70;;;;;;;29.65;38.82;98824.07;432378;1270;108644;-42
2022/08/04 11:51:18;;;;;;;5.20;4.20;;;;;;;29.65;38.15;98822.27;432580;1271;96192;-39
2022/08/04 12:01:42;;;;;;;4.70;4.30;;;;;;;29.65;38.00;98812.93;432258;1271;96182;-40
2022/08/04 12:22:08;;;;;;;4.60;4.20;;;;;;;29.68;37.68;98795.95;432229;1271;108784;-40
2022/08/04 12:42:34;;;;;;;6.70;3.80;;;;;;;29.32;37.42;98790.89;432277;1271;96579;-41
2022/08/04 12:52:44;;;;;;;4.20;3.90;;;;;;;29.27;37.37;98781.97;432258;1271;96136;-41
2022/08/04 13:03:12;;;;;;;6.00;4.00;;;;;;;29.30;37.83;98772.17;432130;1271;110992;-40
2022/08/04 13:13:19;;;;;;;4.40;4.00;;;;;;;29.27;37.71;98764.91;432174;1271;108842;-40
2022/08/04 13:23:28;;;;;;;4.90;4.50;;;;;;;29.34;37.98;98762.15;432473;1271;108900;-40
2022/08/04 13:44:13;;;;;;;4.30;3.90;;;;;;;29.34;38.28;98753.30;432427;1271;97219;-41
2022/08/04 13:54:27;;;;;;;4.20;3.90;;;;;;;29.25;38.01;98750.42;432678;1271;109816;-40
2022/08/04 14:04:38;;;;;;;4.40;3.60;;;;;;;29.26;38.23;98736.59;432118;1271;108966;-40
2022/08/04 14:14:44;;;;;;;4.30;4.00;;;;;;;29.21;37.65;98731.26;432330;1271;108866;-40
2022/08/04 14:24:55;;;;;;;;;;;;;;;29.20;37.59;98728.80;432533;1271;96546;-42
2022/08/04 14:35:12;;;;;;;7.60;3.90;;;;;;;29.06;37.03;98726.73;432240;1271;109867;-41
2022/08/04 14:45:24;;;;;;;5.10;4.10;;;;;;;29.01;36.84;98726.13;432392;1271;109720;-41
2022/08/04 14:55:32;;;;;;;3.10;2.80;;;;;;;28.94;37.04;98722.52;432595;1271;108763;-41
2022/08/04 15:05:42;;;;;;;4.10;3.80;;;;;;;28.99;37.16;98724.53;432595;1271;96511;-40
2022/08/04 15:16:12;;;;;;;4.80;3.30;;;;;;;28.97;36.90;98716.80;432385;1271;96246;-40
2022/08/04 15:26:21;;;;;;;3.60;3.10;;;;;;;28.85;37.03;98715.18;432805;1271;109379;-41
2022/08/04 15:46:48;;;;;;;3.60;3.30;;;;;;;28.86;36.78;98704.49;434049;1271;108870;-41
2022/08/04 15:56:55;;;;;;;6.00;3.30;;;;;;;28.79;36.13;98692.92;432197;1271;96133;-40
2022/08/04 16:07:09;;;;;;;4.40;3.00;;;;;;;28.68;36.30;98688.00;432169;1271;96136;-40
2022/08/04 16:17:16;;;;;;;3.40;2.80;;;;;;;28.41;36.79;98687.61;432206;1271;109218;-40
2022/08/04 16:27:38;;;;;;;3.20;3.00;;;;;;;28.10;37.27;98692.08;432331;1271;108794;-40
2022/08/04 16:37:45;;;;;;;6.50;3.50;;;;;;;27.88;37.74;98690.47;432211;1271;108671;-40
2022/08/04 16:58:08;;;;;;;4.10;3.10;;;;;;;27.66;38.29;98693.61;432291;1271;95393;-40
2022/08/04 17:08:19;;;;;;;6.10;3.10;;;;;;;27.44;38.19;98689.48;432323;1271;109571;-40
2022/08/04 17:18:38;;;;;;;6.30;3.10;;;;;;;27.29;38.51;98686.42;430489;1270;2610054;-43
2022/08/04 17:28:48;;;;;;;5.50;3.50;;;;;;;27.14;39.01;98683.21;431645;1271;108824;-41
2022/08/04 17:38:58;;;;;;;8.20;3.50;;;;;;;26.91;39.50;98687.95;432078;1271;96140;-41
2022/08/04 17:49:05;;;;;;;7.60;4.10;;;;;;;26.64;40.00;98689.99;432310;1271;96154;-40
2022/08/04 17:59:15;;;;;;;4.80;4.30;;;;;;;26.30;40.72;98689.61;432737;1271;109437;-41
2022/08/04 18:20:14;;;;;;;7.10;3.80;;;;;;;25.56;41.62;98690.10;432394;1270;108818;-43
2022/08/04 18:30:23;;;;;;;8.30;4.70;;;;;;;25.11;42.76;98693.59;432411;1271;96149;-41
2022/08/04 18:40:50;;;;;;;12.20;6.60;;;;;;;24.46;43.56;98697.39;432516;1271;95287;-41
2022/08/04 18:51:01;;;;;;;12.20;5.50;;;;;;;23.96;44.58;98703.89;432342;1270;109560;-41
2022/08/04 19:01:28;;;;;;;11.70;6.70;;;;;;;23.50;45.77;98712.43;432371;1271;108775;-41
2022/08/04 19:11:56;;;;;;;9.20;6.50;;;;;;;23.19;46.78;98712.56;432198;1271;109023;-41
2022/08/04 19:22:04;;;;;;;11.60;7.40;;;;;;;22.90;47.50;98718.42;432429;1270;96271;-40
2022/08/04 19:32:14;;;;;;;15.80;7.80;;;;;;;22.53;48.31;98720.91;432134;1271;96849;-41
2022/08/04 19:42:22;;;;;;;9.20;6.30;;;;;;;22.35;48.96;98719.40;432381;1271;109957;-40
2022/08/04 19:52:33;;;;;;;14.80;6.60;;;;;;;22.22;49.51;98719.45;432415;1270;109226;-41
2022/08/04 20:02:42;;;;;;;16.30;6.50;;;;;;;22.05;49.95;98722.58;432539;1271;108432;-41
2022/08/04 20:12:49;;;;;;;11.00;6.80;;;;;;;21.85;50.52;98725.14;432039;1271;96467;-41
2022/08/04 20:23:01;;;;;;;9.80;6.70;;;;;;;21.70;50.81;98730.48;432384;1271;96273;-40
2022/08/04 20:33:11;;;;;;;9.20;6.00;;;;;;;21.61;51.05;98726.44;432650;1271;109384;-40
2022/08/04 20:53:26;;;;;;;8.50;6.10;;;;;;;21.40;51.67;98719.02;432471;1270;108775;-41
2022/08/04 21:14:33;;;;;;;6.30;5.70;;;;;;;20.98;52.37;98719.70;432410;1271;110371;-40
2022/08/04 21:24:42;;;;;;;9.40;6.30;;;;;;;20.76;52.82;98724.21;432315;1271;108904;-39
2022/08/04 21:34:56;;;;;;;10.40;6.80;;;;;;;20.46;53.33;98716.08;432279;1271;108757;-40
2022/08/04 21:55:11;;;;;;;14.50;6.50;;;;;;;20.26;54.22;98714.41;432212;1271;109707;-41
2022/08/04 22:05:17;;;;;;;10.90;6.70;;;;;;;20.19;54.65;98710.39;432622;1271;108790;-41
2022/08/04 22:15:24;;;;;;;7.40;6.40;;;;;;;20.08;55.20;98705.48;432298;1271;96387;-41
2022/08/04 22:25:51;;;;;;;13.10;6.80;;;;;;;19.94;55.38;98699.66;432372;1271;100155;-41
2022/08/04 22:36:01;;;;;;;9.80;6.90;;;;;;;19.57;56.01;98701.77;432364;1269;111237;-40
2022/08/04 22:46:11;;;;;;;16.50;7.50;;;;;;;19.32;56.66;98698.66;432203;1270;108789;-40
2022/08/04 22:56:19;;;;;;;15.10;9.20;;;;;;;19.28;57.05;98699.83;432573;1268;97485;-40
2022/08/04 23:06:45;;;;;;;21.10;11.80;;;;;;;19.34;57.13;98689.69;432390;1271;109058;-40
2022/08/04 23:16:53;;;;;;;20.00;11.30;;;;;;;19.19;57.42;98684.60;432754;1270;97988;-40
2022/08/04 23:26:59;;;;;;;19.50;11.20;;;;;;;18.90;57.86;98671.91;432430;1271;97946;-40
2022/08/04 23:37:06;;;;;;;21.70;11.10;;;;;;;18.65;58.43;98664.85;432369;1271;110941;-41
2022/08/04 23:47:15;;;;;;;18.20;9.90;;;;;;;18.51;58.71;98658.58;432512;1271;108921;-40
2022/08/04 23:57:43;;;;;;;18.70;10.60;;;;;;;18.38;59.33;98657.92;432535;1270;96666;-41
